P/v Golden Gate — WDE5665 — position and weather

sailwx.info

Track history (hours):
 
Tides and Currents Weather Stations Pressure Air Temp Water Temp Dewpoint Dewpoint Depression Visibility Wind Speed Wind Dir Waves Ship Positions

P/v Golden Gate

Owner: San Francisco Bar Pilots Benevolent and Protective, San Francisco, CA. More information available from US FCC via Universal Licensing System and Coast Guard Vessel Documentation Center.

Last reported at 2014-Oct-02 07:33 UTC. Time now 2014-Oct-02 08:34 UTC.
Position N 37°48' W 122°24'.

Length 23 m; draft 2 m.

Type: Pilot. MMSI: 367370010.

Date/timePositionNaut miles runAvg speedWind from/ knotsBaromVisibWave heightAir tempDewpointWater temp
2014-Oct-02 07:33N 37°48' W 122°24'0 0.0
2014-Oct-02 06:34N 37°48' W 122°24'0 0.0
2014-Oct-02 05:34N 37°48' W 122°24'0 0.0
2014-Oct-02 04:33N 37°48' W 122°24'10 9.8
2014-Oct-02 03:34N 37°47' W 122°36'8 8.2
2014-Oct-02 02:33N 37°49' W 122°26'4 4.4
2014-Oct-02 01:34N 37°49' W 122°20'3 2.6
2014-Oct-02 00:33N 37°48' W 122°24'1 0.6
2014-Oct-01 23:33N 37°48' W 122°23'6 5.9
2014-Oct-01 22:33N 37°48' W 122°31'5 5.1
2014-Oct-01 21:34N 37°48' W 122°24'1 0.6
2014-Oct-01 20:33N 37°48' W 122°24'4 3.5
2014-Oct-01 19:34N 37°50' W 122°27'4 3.5
2014-Oct-01 18:33N 37°48' W 122°24'0 0.0
2014-Oct-01 17:34N 37°48' W 122°24'5 4.7
2014-Oct-01 16:34N 37°48' W 122°30'5 4.7
2014-Oct-01 15:33N 37°48' W 122°24'2 2.1
2014-Oct-01 14:33N 37°46' W 122°22'3 2.7
2014-Oct-01 13:33N 37°49' W 122°20'3 2.9
2014-Oct-01 12:33N 37°48' W 122°24'0 0.0
2014-Oct-01 11:34N 37°48' W 122°24'0 0.1
2014-Oct-01 10:34N 37°48' W 122°24'0 0.1
2014-Oct-01 09:33N 37°48' W 122°24'0 0.0
2014-Oct-01 08:33N 37°48' W 122°24'0 0.0
2014-Oct-01 07:34N 37°48' W 122°24'0 0.0
2014-Oct-01 06:33N 37°48' W 122°24'4 4.2
2014-Oct-01 05:33N 37°48' W 122°18'4 4.2
2014-Oct-01 04:33N 37°48' W 122°24'0 0.0
2014-Oct-01 03:33N 37°48' W 122°24'0 0.0
2014-Oct-01 02:33N 37°48' W 122°24'0 0.1
2014-Oct-01 01:34N 37°48' W 122°24'1 0.8
2014-Oct-01 00:33N 37°49' W 122°24'3 2.8
2014-Sep-30 23:33N 37°46' W 122°22'2 2.2
2014-Sep-30 22:33N 37°48' W 122°24'0 0.0
2014-Sep-30 21:33N 37°48' W 122°24'0 0.0
2014-Sep-30 20:33N 37°48' W 122°24'7 7.2
2014-Sep-30 19:34N 37°48' W 122°33'7 7.2
2014-Sep-30 18:33N 37°48' W 122°24'0 0.0
2014-Sep-30 17:33N 37°48' W 122°24'0 0.0
2014-Sep-30 16:33N 37°48' W 122°24'0 0.0
2014-Sep-30 15:33N 37°48' W 122°24'0 0.0
2014-Sep-30 14:33N 37°48' W 122°24'0 0.0
2014-Sep-30 13:33N 37°48' W 122°24'0 0.0
2014-Sep-30 12:34N 37°48' W 122°24'3 3.3
2014-Sep-30 11:34N 37°49' W 122°28'3 3.0
2014-Sep-30 10:34N 37°48' W 122°31'6 6.1
2014-Sep-30 09:33N 37°48' W 122°24'0 0.0
2014-Sep-30 08:33N 37°48' W 122°24'0 0.0
2014-Sep-30 07:33N 37°48' W 122°24'0 0.0
2014-Sep-30 06:33N 37°48' W 122°24'0 0.0
2014-Sep-30 05:34N 37°48' W 122°24'1 1.1
2014-Sep-30 04:33N 37°49' W 122°25'8 7.5
2014-Sep-30 03:32N 37°47' W 122°34'1111.3
2014-Sep-30 02:33N 37°48' W 122°21'1 1.0
2014-Sep-30 01:33N 37°49' W 122°19'4 3.6
2014-Sep-30 00:33N 37°48' W 122°24'0 0.0
2014-Sep-29 23:34N 37°48' W 122°24'3 2.9
2014-Sep-29 22:34N 37°49' W 122°27'2 2.2
2014-Sep-29 21:33N 37°49' W 122°24'1 1.0
2014-Sep-29 20:33N 37°48' W 122°24'0 0.0
2014-Sep-29 19:33N 37°48' W 122°24'0 0.0
2014-Sep-29 18:33N 37°48' W 122°24'0 0.0
2014-Sep-29 17:34N 37°48' W 122°24'0 0.0
2014-Sep-29 16:33N 37°48' W 122°24'0 0.0
2014-Sep-29 15:33N 37°48' W 122°24'2 1.6
2014-Sep-29 14:34N 37°48' W 122°22'3 2.7
2014-Sep-29 13:33N 37°49' W 122°25'1 1.2
2014-Sep-29 12:33N 37°48' W 122°24'3 2.7
2014-Sep-29 11:33N 37°47' W 122°20'3 2.7
2014-Sep-29 10:34N 37°48' W 122°24'4 3.7
2014-Sep-29 09:33N 37°45' W 122°21'4 3.8
2014-Sep-29 08:33N 37°48' W 122°23'2 2.5
2014-Sep-29 07:33N 37°47' W 122°21'3 2.6
2014-Sep-29 06:33N 37°48' W 122°24'0 0.0
2014-Sep-29 05:34N 37°48' W 122°24'0 0.0
2014-Sep-29 04:33N 37°48' W 122°24'1110.8
2014-Sep-29 03:33N 37°46' W 122°37'1312.7
2014-Sep-29 02:34N 37°45' W 122°21'3 3.1
2014-Sep-29 01:34N 37°48' W 122°19'3 3.5
2014-Sep-29 00:33N 37°48' W 122°23'5 4.6
2014-Sep-28 23:34N 37°44' W 122°20'5 4.6
2014-Sep-28 22:33N 37°48' W 122°24'1212.4
2014-Sep-28 21:34N 37°46' W 122°39'1615.7
2014-Sep-28 20:33N 37°48' W 122°19'1 0.9
2014-Sep-28 19:33N 37°49' W 122°19'3 3.5
2014-Sep-28 18:33N 37°48' W 122°24'0 0.0
2014-Sep-28 17:33N 37°48' W 122°24'1 1.0
2014-Sep-28 16:33N 37°48' W 122°23'1 1.0
2014-Sep-28 15:33N 37°48' W 122°24'3 3.5
2014-Sep-28 14:34N 37°48' W 122°19'1 0.9
2014-Sep-28 13:33N 37°49' W 122°20'3 2.8
2014-Sep-28 12:33N 37°48' W 122°24'0 0.0
2014-Sep-28 11:33N 37°48' W 122°24'0 0.0
2014-Sep-28 10:33N 37°48' W 122°24'2 1.8
2014-Sep-28 09:33N 37°50' W 122°24'2 1.8
2014-Sep-28 08:33N 37°48' W 122°24'2 2.2
2014-Sep-28 07:33N 37°49' W 122°26'6 6.0
2014-Sep-28 06:33N 37°45' W 122°21'2 1.6
2014-Sep-28 05:34N 37°46' W 122°21'3 2.7
2014-Sep-28 04:33N 37°48' W 122°24'0 0.0
2014-Sep-28 03:33N 37°48' W 122°24'0 0.0
2014-Sep-28 02:33N 37°48' W 122°24'2 1.7
2014-Sep-28 01:33N 37°47' W 122°22'2 1.7
2014-Sep-28 00:33N 37°48' W 122°24'0 0.0
2014-Sep-27 23:33N 37°48' W 122°24'5 4.9
2014-Sep-27 22:34N 37°48' W 122°30'5 4.9
2014-Sep-27 21:33N 37°48' W 122°24'0 0.0
2014-Sep-27 20:33N 37°48' W 122°24'0 0.0
2014-Sep-27 19:33N 37°48' W 122°24'0 0.0
2014-Sep-27 18:33N 37°48' W 122°24'0 0.0
2014-Sep-27 17:33N 37°48' W 122°24'0 0.0
2014-Sep-27 16:33N 37°48' W 122°24'1 1.2
2014-Sep-27 15:33N 37°49' W 122°25'1 1.2
2014-Sep-27 14:33N 37°48' W 122°24'0 0.0
2014-Sep-27 13:33N 37°48' W 122°24'9 8.8
2014-Sep-27 12:34N 37°46' W 122°35'1010.3
2014-Sep-27 11:34N 37°48' W 122°22'1 1.5
2014-Sep-27 10:34N 37°48' W 122°24'0 0.0
2014-Sep-27 09:34N 37°48' W 122°24'1 0.9
2014-Sep-27 08:34N 37°47' W 122°23'1 0.9
2014-Sep-27 07:33N 37°48' W 122°24'0 0.0
2014-Sep-27 06:33N 37°48' W 122°24'1 1.0
2014-Sep-27 05:34N 37°47' W 122°23'2 1.5
2014-Sep-27 04:33N 37°47' W 122°21'1 0.6
2014-Sep-27 03:33N 37°46' W 122°21'3 3.0
2014-Sep-27 02:33N 37°48' W 122°24'0 0.0
2014-Sep-27 01:34N 37°48' W 122°24'0 0.0
2014-Sep-27 00:33N 37°48' W 122°24'0 0.0
2014-Sep-26 23:33N 37°48' W 122°24'4 4.2
2014-Sep-26 22:33N 37°48' W 122°18'4 4.2
2014-Sep-26 21:33N 37°48' W 122°24'0 0.0
2014-Sep-26 20:33N 37°48' W 122°24'0 0.0
2014-Sep-26 19:33N 37°48' W 122°24'4 3.8
2014-Sep-26 18:33N 37°46' W 122°20'1 0.8
2014-Sep-26 17:33N 37°46' W 122°20'3 3.1
2014-Sep-26 16:34N 37°48' W 122°24'1 1.2
2014-Sep-26 15:33N 37°48' W 122°22'1 1.2
2014-Sep-26 14:34N 37°48' W 122°24'0 0.0
2014-Sep-26 13:33N 37°48' W 122°24'0 0.0
2014-Sep-26 12:33N 37°48' W 122°24'0 0.0
2014-Sep-26 11:34N 37°48' W 122°24'0 0.0
2014-Sep-26 10:34N 37°48' W 122°24'0 0.0
2014-Sep-26 09:34N 37°48' W 122°24'0 0.0
2014-Sep-26 08:34N 37°48' W 122°24'0 0.0
2014-Sep-26 07:34N 37°48' W 122°24'0 0.0
2014-Sep-26 06:34N 37°48' W 122°24'0 0.0
2014-Sep-26 05:33N 37°48' W 122°24'2 2.0
2014-Sep-26 04:33N 37°47' W 122°22'1 1.0
2014-Sep-26 03:34N 37°48' W 122°21'2 2.1
2014-Sep-26 02:33N 37°48' W 122°24'2 1.9
2014-Sep-26 01:33N 37°50' W 122°23'2 1.9
2014-Sep-26 00:33N 37°48' W 122°24'0 0.0
2014-Sep-25 23:33N 37°48' W 122°24'1 1.2
2014-Sep-25 22:33N 37°49' W 122°25'1 0.9
2014-Sep-25 21:33N 37°49' W 122°26'5 5.4
2014-Sep-25 20:33N 37°49' W 122°19'4 3.6
2014-Sep-25 19:33N 37°48' W 122°24'7 7.4
2014-Sep-25 18:33N 37°55' W 122°22'1 0.4
2014-Sep-25 15:33N 37°54' W 122°22'6 6.3
2014-Sep-25 14:34N 37°48' W 122°24'0 0.0
2014-Sep-25 13:33N 37°48' W 122°24'0 0.0
2014-Sep-25 12:34N 37°48' W 122°24'1 0.7
2014-Sep-25 11:33N 37°49' W 122°24'1 0.7
2014-Sep-25 10:33N 37°48' W 122°24'0 0.0
2014-Sep-25 09:33N 37°48' W 122°24'0 0.0
2014-Sep-25 08:34N 37°48' W 122°24'0 0.0
2014-Sep-25 07:33N 37°48' W 122°24'0 0.0
2014-Sep-25 06:34N 37°48' W 122°24'0 0.0
2014-Sep-25 05:33N 37°48' W 122°24'2 2.1
2014-Sep-25 04:33N 37°46' W 122°22'2 2.1
2014-Sep-25 03:33N 37°48' W 122°24'3 3.5
2014-Sep-25 02:33N 37°46' W 122°21'3 3.5
2014-Sep-25 01:33N 37°48' W 122°24'0 0.0
2014-Sep-25 00:34N 37°48' W 122°24'0 0.0
2014-Sep-24 23:33N 37°48' W 122°24'2 1.5
2014-Sep-24 22:33N 37°48' W 122°22'10 9.8
2014-Sep-24 21:34N 37°47' W 122°34'1110.6
2014-Sep-24 20:34N 37°48' W 122°21'2 2.4
2014-Sep-24 19:33N 37°48' W 122°24'10 9.9
2014-Sep-24 18:32N 37°47' W 122°36'1010.3
2014-Sep-24 17:33N 37°48' W 122°24'5 5.1
2014-Sep-24 16:34N 37°47' W 122°17'3 2.6
2014-Sep-24 15:33N 37°48' W 122°21'2 2.5
2014-Sep-24 14:33N 37°48' W 122°24'0 0.0
2014-Sep-24 13:33N 37°48' W 122°24'0 0.0
2014-Sep-24 12:33N 37°48' W 122°24'0 0.0
2014-Sep-24 11:33N 37°48' W 122°24'0 0.1
2014-Sep-24 10:33N 37°48' W 122°24'0 0.1
2014-Sep-24 09:33N 37°48' W 122°24'1 1.1
2014-Sep-24 08:33N 37°47' W 122°23'1 1.1
2014-Sep-24 07:33N 37°48' W 122°24'0 0.0
2014-Sep-24 06:33N 37°48' W 122°24'0 0.0
2014-Sep-24 05:33N 37°48' W 122°24'2 2.2
2014-Sep-24 04:33N 37°49' W 122°26'2 2.2
2014-Sep-24 03:34N 37°48' W 122°24'2 2.4
2014-Sep-24 02:33N 37°47' W 122°21'3 2.6
2014-Sep-24 01:33N 37°49' W 122°23'3 2.8
2014-Sep-24 00:33N 37°49' W 122°20'3 3.4
2014-Sep-23 23:34N 37°48' W 122°24'0 0.0
2014-Sep-23 22:33N 37°48' W 122°24'0 0.0
2014-Sep-23 21:33N 37°48' W 122°24'0 0.0
2014-Sep-23 20:33N 37°48' W 122°24'0 0.0
2014-Sep-23 19:33N 37°48' W 122°24'1 1.2
2014-Sep-23 18:33N 37°49' W 122°25'3 3.2
2014-Sep-23 17:34N 37°52' W 122°25'4 3.8
2014-Sep-23 16:33N 37°48' W 122°24'0 0.0
2014-Sep-23 15:33N 37°48' W 122°24'0 0.0
2014-Sep-23 14:33N 37°48' W 122°24'0 0.0
2014-Sep-23 13:34N 37°48' W 122°24'0 0.0
2014-Sep-23 12:33N 37°48' W 122°24'1212.5
2014-Sep-23 11:33N 37°45' W 122°39'1212.5
2014-Sep-23 10:33N 37°48' W 122°24'0 0.0
2014-Sep-23 09:33N 37°48' W 122°24'0 0.0
2014-Sep-23 08:33N 37°48' W 122°24'0 0.0
2014-Sep-23 07:33N 37°48' W 122°24'0 0.0
2014-Sep-23 06:33N 37°48' W 122°24'0 0.0
2014-Sep-23 05:33N 37°48' W 122°24'0 0.0
2014-Sep-23 04:33N 37°48' W 122°24'0 0.0
2014-Sep-23 03:33N 37°48' W 122°24'0 0.0
2014-Sep-23 02:33N 37°48' W 122°24'4 4.0
2014-Sep-23 01:34N 37°48' W 122°19'3 3.4
2014-Sep-23 00:33N 37°44' W 122°20'2 2.3
2014-Sep-22 23:34N 37°47' W 122°20'3 3.1
2014-Sep-22 22:34N 37°48' W 122°24'0 0.0
2014-Sep-22 21:33N 37°48' W 122°24'10 9.8
2014-Sep-22 20:33N 37°47' W 122°36'10 9.9
2014-Sep-22 19:33N 37°48' W 122°24'0 0.2
2014-Sep-22 18:33N 37°48' W 122°24'0 0.0
2014-Sep-22 17:34N 37°48' W 122°24'1 1.4
2014-Sep-22 16:34N 37°48' W 122°22'0 0.3
2014-Sep-22 15:34N 37°48' W 122°22'1 1.2
2014-Sep-22 14:34N 37°49' W 122°20'9 8.7
2014-Sep-22 13:33N 37°48' W 122°31'5 5.2
2014-Sep-22 12:34N 37°49' W 122°25'5 4.9
2014-Sep-22 11:34N 37°46' W 122°20'4 3.8
2014-Sep-22 10:34N 37°48' W 122°24'0 0.0
2014-Sep-22 09:33N 37°48' W 122°24'5 4.6
2014-Sep-22 08:33N 37°53' W 122°25'  
Track history (hours):
 
Tides and Currents Weather Stations Pressure Air Temp Water Temp Dewpoint Dewpoint Depression Visibility Wind Speed Wind Dir Waves Ship Positions

P/v Golden Gate

Owner: San Francisco Bar Pilots Benevolent and Protective, San Francisco, CA. More information available from US FCC via Universal Licensing System and Coast Guard Vessel Documentation Center.

Last reported at 2014-Oct-02 07:33 UTC. Time now 2014-Oct-02 08:34 UTC.
Position N 37°48' W 122°24'.

Length 23 m; draft 2 m.

Type: Pilot. MMSI: 367370010.

Date/timePositionNaut miles runAvg speedWind from/ knotsBaromVisibWave heightAir tempDewpointWater temp
2014-Oct-02 07:33N 37°48' W 122°24'0 0.0
2014-Oct-02 06:34N 37°48' W 122°24'0 0.0
2014-Oct-02 05:34N 37°48' W 122°24'0 0.0
2014-Oct-02 04:33N 37°48' W 122°24'10 9.8
2014-Oct-02 03:34N 37°47' W 122°36'8 8.2
2014-Oct-02 02:33N 37°49' W 122°26'4 4.4
2014-Oct-02 01:34N 37°49' W 122°20'3 2.6
2014-Oct-02 00:33N 37°48' W 122°24'1 0.6
2014-Oct-01 23:33N 37°48' W 122°23'6 5.9
2014-Oct-01 22:33N 37°48' W 122°31'5 5.1
2014-Oct-01 21:34N 37°48' W 122°24'1 0.6
2014-Oct-01 20:33N 37°48' W 122°24'4 3.5
2014-Oct-01 19:34N 37°50' W 122°27'4 3.5
2014-Oct-01 18:33N 37°48' W 122°24'0 0.0
2014-Oct-01 17:34N 37°48' W 122°24'5 4.7
2014-Oct-01 16:34N 37°48' W 122°30'5 4.7
2014-Oct-01 15:33N 37°48' W 122°24'2 2.1
2014-Oct-01 14:33N 37°46' W 122°22'3 2.7
2014-Oct-01 13:33N 37°49' W 122°20'3 2.9
2014-Oct-01 12:33N 37°48' W 122°24'0 0.0
2014-Oct-01 11:34N 37°48' W 122°24'0 0.1
2014-Oct-01 10:34N 37°48' W 122°24'0 0.1
2014-Oct-01 09:33N 37°48' W 122°24'0 0.0
2014-Oct-01 08:33N 37°48' W 122°24'0 0.0
2014-Oct-01 07:34N 37°48' W 122°24'0 0.0
2014-Oct-01 06:33N 37°48' W 122°24'4 4.2
2014-Oct-01 05:33N 37°48' W 122°18'4 4.2
2014-Oct-01 04:33N 37°48' W 122°24'0 0.0
2014-Oct-01 03:33N 37°48' W 122°24'0 0.0
2014-Oct-01 02:33N 37°48' W 122°24'0 0.1
2014-Oct-01 01:34N 37°48' W 122°24'1 0.8
2014-Oct-01 00:33N 37°49' W 122°24'3 2.8
2014-Sep-30 23:33N 37°46' W 122°22'2 2.2
2014-Sep-30 22:33N 37°48' W 122°24'0 0.0
2014-Sep-30 21:33N 37°48' W 122°24'0 0.0
2014-Sep-30 20:33N 37°48' W 122°24'7 7.2
2014-Sep-30 19:34N 37°48' W 122°33'7 7.2
2014-Sep-30 18:33N 37°48' W 122°24'0 0.0
2014-Sep-30 17:33N 37°48' W 122°24'0 0.0
2014-Sep-30 16:33N 37°48' W 122°24'0 0.0
2014-Sep-30 15:33N 37°48' W 122°24'0 0.0
2014-Sep-30 14:33N 37°48' W 122°24'0 0.0
2014-Sep-30 13:33N 37°48' W 122°24'0 0.0
2014-Sep-30 12:34N 37°48' W 122°24'3 3.3
2014-Sep-30 11:34N 37°49' W 122°28'3 3.0
2014-Sep-30 10:34N 37°48' W 122°31'6 6.1
2014-Sep-30 09:33N 37°48' W 122°24'0 0.0
2014-Sep-30 08:33N 37°48' W 122°24'0 0.0
2014-Sep-30 07:33N 37°48' W 122°24'0 0.0
2014-Sep-30 06:33N 37°48' W 122°24'0 0.0
2014-Sep-30 05:34N 37°48' W 122°24'1 1.1
2014-Sep-30 04:33N 37°49' W 122°25'8 7.5
2014-Sep-30 03:32N 37°47' W 122°34'1111.3
2014-Sep-30 02:33N 37°48' W 122°21'1 1.0
2014-Sep-30 01:33N 37°49' W 122°19'4 3.6
2014-Sep-30 00:33N 37°48' W 122°24'0 0.0
2014-Sep-29 23:34N 37°48' W 122°24'3 2.9
2014-Sep-29 22:34N 37°49' W 122°27'2 2.2
2014-Sep-29 21:33N 37°49' W 122°24'1 1.0
2014-Sep-29 20:33N 37°48' W 122°24'0 0.0
2014-Sep-29 19:33N 37°48' W 122°24'0 0.0
2014-Sep-29 18:33N 37°48' W 122°24'0 0.0
2014-Sep-29 17:34N 37°48' W 122°24'0 0.0
2014-Sep-29 16:33N 37°48' W 122°24'0 0.0
2014-Sep-29 15:33N 37°48' W 122°24'2 1.6
2014-Sep-29 14:34N 37°48' W 122°22'3 2.7
2014-Sep-29 13:33N 37°49' W 122°25'1 1.2
2014-Sep-29 12:33N 37°48' W 122°24'3 2.7
2014-Sep-29 11:33N 37°47' W 122°20'3 2.7
2014-Sep-29 10:34N 37°48' W 122°24'4 3.7
2014-Sep-29 09:33N 37°45' W 122°21'4 3.8
2014-Sep-29 08:33N 37°48' W 122°23'2 2.5
2014-Sep-29 07:33N 37°47' W 122°21'3 2.6
2014-Sep-29 06:33N 37°48' W 122°24'0 0.0
2014-Sep-29 05:34N 37°48' W 122°24'0 0.0
2014-Sep-29 04:33N 37°48' W 122°24'1110.8
2014-Sep-29 03:33N 37°46' W 122°37'1312.7
2014-Sep-29 02:34N 37°45' W 122°21'3 3.1
2014-Sep-29 01:34N 37°48' W 122°19'3 3.5
2014-Sep-29 00:33N 37°48' W 122°23'5 4.6
2014-Sep-28 23:34N 37°44' W 122°20'5 4.6
2014-Sep-28 22:33N 37°48' W 122°24'1212.4
2014-Sep-28 21:34N 37°46' W 122°39'1615.7
2014-Sep-28 20:33N 37°48' W 122°19'1 0.9
2014-Sep-28 19:33N 37°49' W 122°19'3 3.5
2014-Sep-28 18:33N 37°48' W 122°24'0 0.0
2014-Sep-28 17:33N 37°48' W 122°24'1 1.0
2014-Sep-28 16:33N 37°48' W 122°23'1 1.0
2014-Sep-28 15:33N 37°48' W 122°24'3 3.5
2014-Sep-28 14:34N 37°48' W 122°19'1 0.9
2014-Sep-28 13:33N 37°49' W 122°20'3 2.8
2014-Sep-28 12:33N 37°48' W 122°24'0 0.0
2014-Sep-28 11:33N 37°48' W 122°24'0 0.0
2014-Sep-28 10:33N 37°48' W 122°24'2 1.8
2014-Sep-28 09:33N 37°50' W 122°24'2 1.8
2014-Sep-28 08:33N 37°48' W 122°24'2 2.2
2014-Sep-28 07:33N 37°49' W 122°26'6 6.0
2014-Sep-28 06:33N 37°45' W 122°21'2 1.6
2014-Sep-28 05:34N 37°46' W 122°21'3 2.7
2014-Sep-28 04:33N 37°48' W 122°24'0 0.0
2014-Sep-28 03:33N 37°48' W 122°24'0 0.0
2014-Sep-28 02:33N 37°48' W 122°24'2 1.7
2014-Sep-28 01:33N 37°47' W 122°22'2 1.7
2014-Sep-28 00:33N 37°48' W 122°24'0 0.0
2014-Sep-27 23:33N 37°48' W 122°24'5 4.9
2014-Sep-27 22:34N 37°48' W 122°30'5 4.9
2014-Sep-27 21:33N 37°48' W 122°24'0 0.0
2014-Sep-27 20:33N 37°48' W 122°24'0 0.0
2014-Sep-27 19:33N 37°48' W 122°24'0 0.0
2014-Sep-27 18:33N 37°48' W 122°24'0 0.0
2014-Sep-27 17:33N 37°48' W 122°24'0 0.0
2014-Sep-27 16:33N 37°48' W 122°24'1 1.2
2014-Sep-27 15:33N 37°49' W 122°25'1 1.2
2014-Sep-27 14:33N 37°48' W 122°24'0 0.0
2014-Sep-27 13:33N 37°48' W 122°24'9 8.8
2014-Sep-27 12:34N 37°46' W 122°35'1010.3
2014-Sep-27 11:34N 37°48' W 122°22'1 1.5
2014-Sep-27 10:34N 37°48' W 122°24'0 0.0
2014-Sep-27 09:34N 37°48' W 122°24'1 0.9
2014-Sep-27 08:34N 37°47' W 122°23'1 0.9
2014-Sep-27 07:33N 37°48' W 122°24'0 0.0
2014-Sep-27 06:33N 37°48' W 122°24'1 1.0
2014-Sep-27 05:34N 37°47' W 122°23'2 1.5
2014-Sep-27 04:33N 37°47' W 122°21'1 0.6
2014-Sep-27 03:33N 37°46' W 122°21'3 3.0
2014-Sep-27 02:33N 37°48' W 122°24'0 0.0
2014-Sep-27 01:34N 37°48' W 122°24'0 0.0
2014-Sep-27 00:33N 37°48' W 122°24'0 0.0
2014-Sep-26 23:33N 37°48' W 122°24'4 4.2
2014-Sep-26 22:33N 37°48' W 122°18'4 4.2
2014-Sep-26 21:33N 37°48' W 122°24'0 0.0
2014-Sep-26 20:33N 37°48' W 122°24'0 0.0
2014-Sep-26 19:33N 37°48' W 122°24'4 3.8
2014-Sep-26 18:33N 37°46' W 122°20'1 0.8
2014-Sep-26 17:33N 37°46' W 122°20'3 3.1
2014-Sep-26 16:34N 37°48' W 122°24'1 1.2
2014-Sep-26 15:33N 37°48' W 122°22'1 1.2
2014-Sep-26 14:34N 37°48' W 122°24'0 0.0
2014-Sep-26 13:33N 37°48' W 122°24'0 0.0
2014-Sep-26 12:33N 37°48' W 122°24'0 0.0
2014-Sep-26 11:34N 37°48' W 122°24'0 0.0
2014-Sep-26 10:34N 37°48' W 122°24'0 0.0
2014-Sep-26 09:34N 37°48' W 122°24'0 0.0
2014-Sep-26 08:34N 37°48' W 122°24'0 0.0
2014-Sep-26 07:34N 37°48' W 122°24'0 0.0
2014-Sep-26 06:34N 37°48' W 122°24'0 0.0
2014-Sep-26 05:33N 37°48' W 122°24'2 2.0
2014-Sep-26 04:33N 37°47' W 122°22'1 1.0
2014-Sep-26 03:34N 37°48' W 122°21'2 2.1
2014-Sep-26 02:33N 37°48' W 122°24'2 1.9
2014-Sep-26 01:33N 37°50' W 122°23'2 1.9
2014-Sep-26 00:33N 37°48' W 122°24'0 0.0
2014-Sep-25 23:33N 37°48' W 122°24'1 1.2
2014-Sep-25 22:33N 37°49' W 122°25'1 0.9
2014-Sep-25 21:33N 37°49' W 122°26'5 5.4
2014-Sep-25 20:33N 37°49' W 122°19'4 3.6
2014-Sep-25 19:33N 37°48' W 122°24'7 7.4
2014-Sep-25 18:33N 37°55' W 122°22'1 0.4
2014-Sep-25 15:33N 37°54' W 122°22'6 6.3
2014-Sep-25 14:34N 37°48' W 122°24'0 0.0
2014-Sep-25 13:33N 37°48' W 122°24'0 0.0
2014-Sep-25 12:34N 37°48' W 122°24'1 0.7
2014-Sep-25 11:33N 37°49' W 122°24'1 0.7
2014-Sep-25 10:33N 37°48' W 122°24'0 0.0
2014-Sep-25 09:33N 37°48' W 122°24'0 0.0
2014-Sep-25 08:34N 37°48' W 122°24'0 0.0
2014-Sep-25 07:33N 37°48' W 122°24'0 0.0
2014-Sep-25 06:34N 37°48' W 122°24'0 0.0
2014-Sep-25 05:33N 37°48' W 122°24'2 2.1
2014-Sep-25 04:33N 37°46' W 122°22'2 2.1
2014-Sep-25 03:33N 37°48' W 122°24'3 3.5
2014-Sep-25 02:33N 37°46' W 122°21'3 3.5
2014-Sep-25 01:33N 37°48' W 122°24'0 0.0
2014-Sep-25 00:34N 37°48' W 122°24'0 0.0
2014-Sep-24 23:33N 37°48' W 122°24'2 1.5
2014-Sep-24 22:33N 37°48' W 122°22'10 9.8
2014-Sep-24 21:34N 37°47' W 122°34'1110.6
2014-Sep-24 20:34N 37°48' W 122°21'2 2.4
2014-Sep-24 19:33N 37°48' W 122°24'10 9.9
2014-Sep-24 18:32N 37°47' W 122°36'1010.3
2014-Sep-24 17:33N 37°48' W 122°24'5 5.1
2014-Sep-24 16:34N 37°47' W 122°17'3 2.6
2014-Sep-24 15:33N 37°48' W 122°21'2 2.5
2014-Sep-24 14:33N 37°48' W 122°24'0 0.0
2014-Sep-24 13:33N 37°48' W 122°24'0 0.0
2014-Sep-24 12:33N 37°48' W 122°24'0 0.0
2014-Sep-24 11:33N 37°48' W 122°24'0 0.1
2014-Sep-24 10:33N 37°48' W 122°24'0 0.1
2014-Sep-24 09:33N 37°48' W 122°24'1 1.1
2014-Sep-24 08:33N 37°47' W 122°23'1 1.1
2014-Sep-24 07:33N 37°48' W 122°24'0 0.0
2014-Sep-24 06:33N 37°48' W 122°24'0 0.0
2014-Sep-24 05:33N 37°48' W 122°24'2 2.2
2014-Sep-24 04:33N 37°49' W 122°26'2 2.2
2014-Sep-24 03:34N 37°48' W 122°24'2 2.4
2014-Sep-24 02:33N 37°47' W 122°21'3 2.6
2014-Sep-24 01:33N 37°49' W 122°23'3 2.8
2014-Sep-24 00:33N 37°49' W 122°20'3 3.4
2014-Sep-23 23:34N 37°48' W 122°24'0 0.0
2014-Sep-23 22:33N 37°48' W 122°24'0 0.0
2014-Sep-23 21:33N 37°48' W 122°24'0 0.0
2014-Sep-23 20:33N 37°48' W 122°24'0 0.0
2014-Sep-23 19:33N 37°48' W 122°24'1 1.2
2014-Sep-23 18:33N 37°49' W 122°25'3 3.2
2014-Sep-23 17:34N 37°52' W 122°25'4 3.8
2014-Sep-23 16:33N 37°48' W 122°24'0 0.0
2014-Sep-23 15:33N 37°48' W 122°24'0 0.0
2014-Sep-23 14:33N 37°48' W 122°24'0 0.0
2014-Sep-23 13:34N 37°48' W 122°24'0 0.0
2014-Sep-23 12:33N 37°48' W 122°24'1212.5
2014-Sep-23 11:33N 37°45' W 122°39'1212.5
2014-Sep-23 10:33N 37°48' W 122°24'0 0.0
2014-Sep-23 09:33N 37°48' W 122°24'0 0.0
2014-Sep-23 08:33N 37°48' W 122°24'0 0.0
2014-Sep-23 07:33N 37°48' W 122°24'0 0.0
2014-Sep-23 06:33N 37°48' W 122°24'0 0.0
2014-Sep-23 05:33N 37°48' W 122°24'0 0.0
2014-Sep-23 04:33N 37°48' W 122°24'0 0.0
2014-Sep-23 03:33N 37°48' W 122°24'0 0.0
2014-Sep-23 02:33N 37°48' W 122°24'4 4.0
2014-Sep-23 01:34N 37°48' W 122°19'3 3.4
2014-Sep-23 00:33N 37°44' W 122°20'2 2.3
2014-Sep-22 23:34N 37°47' W 122°20'3 3.1
2014-Sep-22 22:34N 37°48' W 122°24'0 0.0
2014-Sep-22 21:33N 37°48' W 122°24'10 9.8
2014-Sep-22 20:33N 37°47' W 122°36'10 9.9
2014-Sep-22 19:33N 37°48' W 122°24'0 0.2
2014-Sep-22 18:33N 37°48' W 122°24'0 0.0
2014-Sep-22 17:34N 37°48' W 122°24'1 1.4
2014-Sep-22 16:34N 37°48' W 122°22'0 0.3
2014-Sep-22 15:34N 37°48' W 122°22'1 1.2
2014-Sep-22 14:34N 37°49' W 122°20'9 8.7
2014-Sep-22 13:33N 37°48' W 122°31'5 5.2
2014-Sep-22 12:34N 37°49' W 122°25'5 4.9
2014-Sep-22 11:34N 37°46' W 122°20'4 3.8
2014-Sep-22 10:34N 37°48' W 122°24'0 0.0
2014-Sep-22 09:33N 37°48' W 122°24'5 4.6
2014-Sep-22 08:33N 37°53' W 122°25'  

Dump ship's entire track history